Time;durP1;ratioP1;P1;durP2;ratioP2;P2;SDS_P1;SDS_P2;PMS_P1;PMS_P2;Temp;Humidity;BMP_temperature;BMP_pressure;BME280_temperature;BME280_humidity;BME280_pressure;Samples;Min_cycle;Max_cycle;Signal;HPM_P1;HPM_P2
2023/08/26 00:02:03;;;;;;;7.30;2.90;;;;;;;;;;104023;1295;544799;-78
2023/08/26 00:05:48;;;;;;;6.10;2.90;;;;;;;;;;103748;1289;548661;-82
2023/08/26 00:09:18;;;;;;;7.10;2.80;;;;;;;;;;103499;1295;545839;-76
2023/08/26 00:12:56;;;;;;;6.50;2.90;;;;;;;;;;104001;1289;544609;-79
2023/08/26 00:16:33;;;;;;;7.70;2.90;;;;;;;;;;103733;1292;546381;-77
2023/08/26 00:20:16;;;;;;;8.60;2.60;;;;;;;;;;103589;1295;547839;-76
2023/08/26 00:23:54;;;;;;;6.60;2.80;;;;;;;;;;104033;1289;548035;-80
2023/08/26 00:27:31;;;;;;;7.10;2.90;;;;;;;;;;103637;1291;548120;-79
2023/08/26 00:31:09;;;;;;;5.80;2.60;;;;;;;;;;103652;1292;547783;-80
2023/08/26 00:34:43;;;;;;;5.60;2.40;;;;;;;;;;103927;1288;545082;-80
2023/08/26 00:38:18;;;;;;;7.40;3.10;;;;;;;;;;104049;1292;545157;-79
2023/08/26 00:41:56;;;;;;;8.70;3.20;;;;;;;;;;103815;1302;544578;-80
2023/08/26 00:45:46;;;;;;;7.80;2.70;;;;;;;;;;103560;1294;548300;-76
2023/08/26 00:49:11;;;;;;;5.80;2.70;;;;;;;;;;103663;1289;544767;-78
2023/08/26 00:52:53;;;;;;;8.20;3.30;;;;;;;;;;103615;1295;545485;-77
2023/08/26 00:56:31;;;;;;;7.50;3.00;;;;;;;;;;103560;1295;547835;-82
2023/08/26 01:00:05;;;;;;;7.60;2.70;;;;;;;;;;103849;1290;544795;-81
2023/08/26 01:03:46;;;;;;;7.00;2.60;;;;;;;;;;103495;1297;547790;-80
2023/08/26 01:07:20;;;;;;;8.10;3.20;;;;;;;;;;103864;1289;547790;-76
2023/08/26 01:10:55;;;;;;;6.60;2.70;;;;;;;;;;103788;1291;544954;-80
2023/08/26 01:14:40;;;;;;;6.60;2.60;;;;;;;;;;103781;1292;546093;-78
2023/08/26 01:18:13;;;;;;;6.90;2.50;;;;;;;;;;103748;1288;544872;-76
2023/08/26 01:21:56;;;;;;;8.00;2.90;;;;;;;;;;103641;1295;547954;-81
2023/08/26 01:25:31;;;;;;;8.20;2.90;;;;;;;;;;103658;1292;548356;-81
2023/08/26 01:29:08;;;;;;;7.10;2.90;;;;;;;;;;103449;1294;547792;-77
2023/08/26 01:33:00;;;;;;;8.70;2.80;;;;;;;;;;103943;1289;544906;-79
2023/08/26 01:36:19;;;;;;;10.20;2.90;;;;;;;;;;103824;1292;545494;-82
2023/08/26 01:39:56;;;;;;;8.50;3.20;;;;;;;;;;104058;1289;545021;-79
2023/08/26 01:43:38;;;;;;;7.60;2.90;;;;;;;;;;103636;1289;548022;-77
2023/08/26 01:47:09;;;;;;;9.40;3.10;;;;;;;;;;103726;1289;545324;-79
2023/08/26 01:50:47;;;;;;;11.50;3.30;;;;;;;;;;103750;1290;545430;-79
2023/08/26 01:54:30;;;;;;;8.30;2.90;;;;;;;;;;103665;1291;548418;-84
2023/08/26 01:58:02;;;;;;;8.00;2.70;;;;;;;;;;103846;1289;544941;-82
2023/08/26 02:01:42;;;;;;;8.40;2.60;;;;;;;;;;103852;1289;547931;-80
2023/08/26 02:05:22;;;;;;;7.20;2.90;;;;;;;;;;103677;1292;547804;-82
2023/08/26 02:08:55;;;;;;;5.80;2.70;;;;;;;;;;103750;1291;544973;-79
2023/08/26 02:12:32;;;;;;;7.80;2.90;;;;;;;;;;103845;1289;545052;-79
2023/08/26 02:16:09;;;;;;;8.50;3.30;;;;;;;;;;103767;1291;544455;-81
2023/08/26 02:19:46;;;;;;;9.50;2.80;;;;;;;;;;103795;1289;544920;-77
2023/08/26 02:23:30;;;;;;;9.30;3.20;;;;;;;;;;103361;1294;547794;-80
2023/08/26 02:27:07;;;;;;;8.70;3.20;;;;;;;;;;103682;1292;547994;-78
2023/08/26 02:30:39;;;;;;;8.30;3.20;;;;;;;;;;103755;1290;544858;-77
2023/08/26 02:34:17;;;;;;;7.60;2.90;;;;;;;;;;103799;1289;544800;-78
2023/08/26 02:38:00;;;;;;;8.10;3.00;;;;;;;;;;104589;1294;548115;-81
2023/08/26 02:41:31;;;;;;;6.40;2.90;;;;;;;;;;103699;1289;545015;-77
2023/08/26 02:45:09;;;;;;;8.10;3.20;;;;;;;;;;103752;1291;544922;-80
2023/08/26 02:48:46;;;;;;;7.70;3.60;;;;;;;;;;103786;1292;545968;-81
2023/08/26 02:52:30;;;;;;;7.60;3.20;;;;;;;;;;103506;1291;548140;-77
2023/08/26 02:56:01;;;;;;;8.10;3.00;;;;;;;;;;103800;1292;544996;-77
2023/08/26 02:59:45;;;;;;;9.30;3.20;;;;;;;;;;103608;1292;548240;-78
2023/08/26 03:03:17;;;;;;;6.90;3.20;;;;;;;;;;103854;1289;545025;-80
2023/08/26 03:07:00;;;;;;;6.80;3.30;;;;;;;;;;103610;1289;547991;-80
2023/08/26 03:10:37;;;;;;;7.60;3.20;;;;;;;;;;103604;1292;545443;-75
2023/08/26 03:14:09;;;;;;;7.10;2.80;;;;;;;;;;103789;1291;544786;-79
2023/08/26 03:17:46;;;;;;;6.30;2.50;;;;;;;;;;103802;1292;545217;-80
2023/08/26 03:21:24;;;;;;;6.20;3.10;;;;;;;;;;103783;1289;544797;-77
2023/08/26 03:25:01;;;;;;;7.00;3.30;;;;;;;;;;103782;1292;544967;-79
2023/08/26 03:28:38;;;;;;;7.10;3.30;;;;;;;;;;103751;1290;545095;-81
2023/08/26 03:32:15;;;;;;;6.60;2.90;;;;;;;;;;103725;1290;545324;-77
2023/08/26 03:35:54;;;;;;;7.90;2.70;;;;;;;;;;104644;1285;545088;-80
2023/08/26 03:39:30;;;;;;;8.00;2.90;;;;;;;;;;104051;1291;545440;-77
2023/08/26 03:43:08;;;;;;;6.80;3.10;;;;;;;;;;103819;1289;545704;-80
2023/08/26 03:46:46;;;;;;;6.30;2.90;;;;;;;;;;103789;1291;545964;-80
2023/08/26 03:50:24;;;;;;;6.60;2.80;;;;;;;;;;103777;1290;544899;-80
2023/08/26 03:54:06;;;;;;;7.60;3.00;;;;;;;;;;103570;1291;547909;-78
2023/08/26 03:57:44;;;;;;;7.20;3.00;;;;;;;;;;103615;1292;547755;-80
2023/08/26 04:01:16;;;;;;;7.70;3.00;;;;;;;;;;104575;1282;545507;-79
2023/08/26 04:04:54;;;;;;;7.90;2.90;;;;;;;;;;103762;1289;544855;-77
2023/08/26 04:08:32;;;;;;;9.10;3.10;;;;;;;;;;103821;1288;544850;-82
2023/08/26 04:12:14;;;;;;;7.80;2.90;;;;;;;;;;103852;1292;547844;-76
2023/08/26 04:15:46;;;;;;;8.00;3.40;;;;;;;;;;104067;1288;546647;-77
2023/08/26 04:19:30;;;;;;;8.10;2.90;;;;;;;;;;103682;1290;548074;-81
2023/08/26 04:23:02;;;;;;;8.50;3.20;;;;;;;;;;103718;1292;545093;-79
2023/08/26 04:26:44;;;;;;;8.70;3.70;;;;;;;;;;103588;1294;548148;-81
2023/08/26 04:30:15;;;;;;;8.50;3.90;;;;;;;;;;103699;1291;545020;-79
2023/08/26 04:33:53;;;;;;;11.00;3.10;;;;;;;;;;103631;1296;545108;-79
2023/08/26 04:37:37;;;;;;;8.30;2.80;;;;;;;;;;103667;1291;547860;-77
2023/08/26 04:41:14;;;;;;;7.10;2.80;;;;;;;;;;103645;1289;549107;-77
2023/08/26 04:44:45;;;;;;;9.10;3.30;;;;;;;;;;103888;1292;545880;-77
2023/08/26 04:48:23;;;;;;;11.10;3.70;;;;;;;;;;103766;1291;545469;-78
2023/08/26 04:52:06;;;;;;;12.40;3.70;;;;;;;;;;103493;1292;547888;-81
2023/08/26 04:55:38;;;;;;;11.40;3.30;;;;;;;;;;103769;1292;546425;-77
2023/08/26 04:59:15;;;;;;;8.80;3.20;;;;;;;;;;103803;1292;545233;-78
2023/08/26 05:02:53;;;;;;;6.90;3.10;;;;;;;;;;104032;1291;545950;-80
2023/08/26 05:06:36;;;;;;;14.10;3.80;;;;;;;;;;103799;1292;548173;-80
2023/08/26 05:10:13;;;;;;;8.10;3.40;;;;;;;;;;103547;1289;548036;-81
2023/08/26 05:13:45;;;;;;;9.00;3.40;;;;;;;;;;103754;1289;545306;-79
2023/08/26 05:17:22;;;;;;;8.20;3.30;;;;;;;;;;103795;1292;545528;-77
2023/08/26 05:21:06;;;;;;;10.30;5.20;;;;;;;;;;103659;1288;546370;-81
2023/08/26 05:24:38;;;;;;;8.90;4.80;;;;;;;;;;104103;1285;544737;-79
2023/08/26 05:28:21;;;;;;;8.40;4.00;;;;;;;;;;103641;1291;548114;-80
2023/08/26 05:31:53;;;;;;;8.50;3.50;;;;;;;;;;103842;1295;544827;-80
2023/08/26 05:35:30;;;;;;;9.30;3.60;;;;;;;;;;103854;1291;544767;-80
2023/08/26 05:39:07;;;;;;;10.00;3.60;;;;;;;;;;103901;1289;545255;-77
2023/08/26 05:42:45;;;;;;;9.60;3.70;;;;;;;;;;103759;1292;545225;-80
2023/08/26 05:46:28;;;;;;;8.90;3.40;;;;;;;;;;103621;1289;546333;-80
2023/08/26 05:50:06;;;;;;;7.30;3.40;;;;;;;;;;103620;1289;548024;-79
2023/08/26 05:53:37;;;;;;;6.20;2.80;;;;;;;;;;104136;1285;545908;-79
2023/08/26 05:57:15;;;;;;;5.80;3.00;;;;;;;;;;104591;1283;544999;-79
2023/08/26 06:00:52;;;;;;;8.00;3.10;;;;;;;;;;103787;1289;544981;-79
2023/08/26 06:04:35;;;;;;;12.80;4.30;;;;;;;;;;103502;1291;548197;-81
2023/08/26 06:08:13;;;;;;;12.40;4.30;;;;;;;;;;103567;1292;547956;-77
2023/08/26 06:11:50;;;;;;;9.60;4.20;;;;;;;;;;103601;1292;546362;-77
2023/08/26 06:15:22;;;;;;;10.90;4.20;;;;;;;;;;103775;1289;545399;-81
2023/08/26 06:18:59;;;;;;;11.80;4.20;;;;;;;;;;104229;1289;544772;-81
2023/08/26 06:22:37;;;;;;;8.60;3.90;;;;;;;;;;103901;1291;545504;-78
2023/08/26 06:26:14;;;;;;;11.40;3.70;;;;;;;;;;104468;1285;544972;-77
2023/08/26 06:29:53;;;;;;;11.00;3.40;;;;;;;;;;103752;1290;544861;-79
2023/08/26 06:33:29;;;;;;;9.50;3.30;;;;;;;;;;103769;1289;544693;-78
2023/08/26 06:37:13;;;;;;;10.10;3.60;;;;;;;;;;103654;1291;548556;-75
2023/08/26 06:40:52;;;;;;;8.30;3.90;;;;;;;;;;103949;1292;545054;-77
2023/08/26 06:44:27;;;;;;;11.30;4.20;;;;;;;;;;103679;1289;547897;-77
2023/08/26 06:48:15;;;;;;;10.30;4.10;;;;;;;;;;103842;1291;548176;-77
2023/08/26 06:51:37;;;;;;;11.80;3.80;;;;;;;;;;103790;1294;545029;-78
2023/08/26 06:55:14;;;;;;;7.40;3.40;;;;;;;;;;103974;1288;545021;-77
2023/08/26 06:58:52;;;;;;;7.10;3.40;;;;;;;;;;103794;1291;546303;-75
2023/08/26 07:02:29;;;;;;;11.20;3.50;;;;;;;;;;103919;1292;545254;-78
2023/08/26 07:06:12;;;;;;;7.70;3.60;;;;;;;;;;103591;1289;548004;-76
2023/08/26 07:09:44;;;;;;;11.10;4.20;;;;;;;;;;103650;1292;545547;-78
2023/08/26 07:13:27;;;;;;;11.10;3.90;;;;;;;;;;103668;1292;547981;-78
2023/08/26 07:16:58;;;;;;;11.10;3.80;;;;;;;;;;103769;1289;544859;-78
2023/08/26 07:20:38;;;;;;;9.40;3.50;;;;;;;;;;103701;1289;546116;-78
2023/08/26 07:24:19;;;;;;;8.30;3.30;;;;;;;;;;103479;1305;548286;-78
2023/08/26 07:27:51;;;;;;;9.50;3.60;;;;;;;;;;103849;1290;544713;-79
2023/08/26 07:31:32;;;;;;;7.70;3.70;;;;;;;;;;103875;1288;547824;-77
2023/08/26 07:35:12;;;;;;;12.00;5.50;;;;;;;;;;103537;1295;548180;-78
2023/08/26 07:38:49;;;;;;;13.10;4.80;;;;;;;;;;103660;1291;547792;-78
2023/08/26 07:42:23;;;;;;;8.50;4.00;;;;;;;;;;103753;1290;544920;-76
2023/08/26 07:45:58;;;;;;;12.60;6.10;;;;;;;;;;103762;1301;545968;-74
2023/08/26 07:49:45;;;;;;;10.10;3.90;;;;;;;;;;104016;1285;545260;-78
2023/08/26 07:53:09;;;;;;;8.50;3.70;;;;;;;;;;104166;1286;544878;-74
2023/08/26 07:56:59;;;;;;;17.50;5.70;;;;;;;;;;103473;1292;547816;-77
2023/08/26 08:00:29;;;;;;;11.20;4.00;;;;;;;;;;104315;1289;544809;-76
2023/08/26 08:04:07;;;;;;;11.10;4.90;;;;;;;;;;104035;1292;545435;-79
2023/08/26 08:07:50;;;;;;;8.20;4.40;;;;;;;;;;103645;1292;548297;-75
2023/08/26 08:11:21;;;;;;;8.20;4.10;;;;;;;;;;103761;1292;545491;-77
2023/08/26 08:15:39;;;;;;;8.40;4.40;;;;;;;;;;104577;1284;548069;-76
2023/08/26 08:29:01;;;;;;;7.80;4.60;;;;;;;;;;104915;1283;549815;-79
2023/08/26 08:31:51;;;;;;;7.90;4.20;;;;;;;;;;104476;1281;544994;-78
2023/08/26 08:35:29;;;;;;;8.30;4.70;;;;;;;;;;103711;1292;545566;-80
2023/08/26 08:39:06;;;;;;;8.80;5.00;;;;;;;;;;103754;1293;546404;-78
2023/08/26 08:42:47;;;;;;;7.20;4.20;;;;;;;;;;103706;1289;544814;-77
2023/08/26 08:46:21;;;;;;;8.50;5.00;;;;;;;;;;104105;1289;545027;-78
2023/08/26 08:50:05;;;;;;;7.30;5.30;;;;;;;;;;103619;1290;547758;-78
2023/08/26 08:53:39;;;;;;;7.90;5.00;;;;;;;;;;103595;1291;544795;-75
2023/08/26 08:57:26;;;;;;;7.90;4.90;;;;;;;;;;103591;1292;548046;-75
2023/08/26 09:00:52;;;;;;;8.30;5.00;;;;;;;;;;104817;1283;545888;-77
2023/08/26 09:04:29;;;;;;;8.70;5.40;;;;;;;;;;103565;1290;546735;-77
2023/08/26 09:08:08;;;;;;;10.00;5.40;;;;;;;;;;103785;1295;545004;-79
2023/08/26 09:11:44;;;;;;;13.50;5.30;;;;;;;;;;103889;1292;544843;-75
2023/08/26 09:15:17;;;;;;;10.50;5.30;;;;;;;;;;103827;1289;544783;-77
2023/08/26 09:19:00;;;;;;;9.00;5.00;;;;;;;;;;103937;1292;544732;-79
2023/08/26 09:33:13;;;;;;;8.10;4.60;;;;;;;;;;104372;1286;551054;-79
2023/08/26 09:36:00;;;;;;;8.70;4.80;;;;;;;;;;103988;1289;545590;-78
2023/08/26 09:39:46;;;;;;;9.50;3.80;;;;;;;;;;104057;1289;545233;-77
2023/08/26 09:43:13;;;;;;;6.70;3.90;;;;;;;;;;103803;1291;544795;-76
2023/08/26 09:46:50;;;;;;;7.60;4.00;;;;;;;;;;103752;1291;545022;-78
2023/08/26 09:50:33;;;;;;;6.90;3.60;;;;;;;;;;103697;1295;545426;-76
2023/08/26 09:54:05;;;;;;;7.60;4.20;;;;;;;;;;103492;1295;545329;-76
2023/08/26 09:57:48;;;;;;;13.00;6.30;;;;;;;;;;103514;1291;547896;-75
2023/08/26 10:01:23;;;;;;;6.40;3.40;;;;;;;;;;103577;1292;545943;-74
2023/08/26 10:05:00;;;;;;;7.00;3.70;;;;;;;;;;103763;1289;545431;-76
2023/08/26 10:08:37;;;;;;;6.40;3.20;;;;;;;;;;103976;1297;545716;-76
2023/08/26 10:12:19;;;;;;;8.80;3.20;;;;;;;;;;103792;1290;545923;-78
2023/08/26 10:15:55;;;;;;;6.70;3.20;;;;;;;;;;103851;1289;544787;-75
2023/08/26 10:19:28;;;;;;;6.60;3.10;;;;;;;;;;103787;1291;545434;-74
2023/08/26 10:23:12;;;;;;;5.50;2.90;;;;;;;;;;103583;1289;547855;-74
2023/08/26 10:26:42;;;;;;;5.50;2.80;;;;;;;;;;103760;1292;546246;-75
2023/08/26 10:30:20;;;;;;;5.70;2.70;;;;;;;;;;104045;1291;545786;-76
2023/08/26 10:34:05;;;;;;;5.30;2.50;;;;;;;;;;103561;1291;548200;-76
2023/08/26 10:37:35;;;;;;;4.50;2.30;;;;;;;;;;103781;1295;545947;-75
2023/08/26 10:41:12;;;;;;;6.10;2.60;;;;;;;;;;103868;1292;545938;-77
2023/08/26 10:44:53;;;;;;;7.10;2.70;;;;;;;;;;103793;1289;545430;-78
2023/08/26 10:58:49;;;;;;;8.90;4.10;;;;;;;;;;104699;1286;549711;-74
2023/08/26 11:01:43;;;;;;;7.90;3.40;;;;;;;;;;103684;1291;546298;-79
2023/08/26 11:05:20;;;;;;;6.20;2.90;;;;;;;;;;103827;1292;545972;-75
2023/08/26 11:08:57;;;;;;;4.30;1.80;;;;;;;;;;103772;1299;544973;-79
2023/08/26 11:12:35;;;;;;;5.20;1.70;;;;;;;;;;104026;1291;545210;-74
2023/08/26 11:16:12;;;;;;;6.40;2.20;;;;;;;;;;103895;1288;544799;-75
2023/08/26 11:19:49;;;;;;;4.70;2.10;;;;;;;;;;104160;1288;544853;-76
2023/08/26 11:23:26;;;;;;;3.10;1.50;;;;;;;;;;103680;1291;544742;-75
2023/08/26 11:27:05;;;;;;;5.50;2.10;;;;;;;;;;103738;1291;545350;-75
2023/08/26 11:30:48;;;;;;;5.00;2.20;;;;;;;;;;103654;1294;547986;-76
2023/08/26 11:34:24;;;;;;;5.20;2.20;;;;;;;;;;103632;1292;546265;-75
2023/08/26 11:37:56;;;;;;;5.80;1.80;;;;;;;;;;103781;1294;545442;-77
2023/08/26 11:41:34;;;;;;;4.20;2.20;;;;;;;;;;103751;1291;545290;-79
2023/08/26 11:45:12;;;;;;;4.50;2.00;;;;;;;;;;103818;1289;545012;-78
2023/08/26 11:48:49;;;;;;;5.20;2.10;;;;;;;;;;103798;1292;545050;-76
2023/08/26 11:52:36;;;;;;;6.20;2.40;;;;;;;;;;103771;1289;544914;-75
2023/08/26 11:56:06;;;;;;;4.60;2.30;;;;;;;;;;103702;1289;544733;-74
2023/08/26 11:59:43;;;;;;;4.20;2.30;;;;;;;;;;103864;1292;544840;-74
2023/08/26 12:03:19;;;;;;;12.90;5.10;;;;;;;;;;103779;1289;544773;-76
2023/08/26 12:06:56;;;;;;;17.10;9.60;;;;;;;;;;103705;1290;544803;-77
2023/08/26 12:10:34;;;;;;;16.50;9.90;;;;;;;;;;103777;1289;544969;-76
2023/08/26 12:14:17;;;;;;;10.00;4.70;;;;;;;;;;103775;1290;545556;-77
2023/08/26 12:17:49;;;;;;;17.40;10.20;;;;;;;;;;103788;1289;545094;-75
2023/08/26 12:21:29;;;;;;;15.80;8.00;;;;;;;;;;103760;1291;544903;-76
2023/08/26 12:25:03;;;;;;;13.20;6.70;;;;;;;;;;103607;1291;544960;-75
2023/08/26 12:28:40;;;;;;;6.70;3.10;;;;;;;;;;103921;1292;545386;-77
2023/08/26 12:32:18;;;;;;;6.10;2.40;;;;;;;;;;103796;1292;544854;-77
2023/08/26 12:35:55;;;;;;;4.20;1.90;;;;;;;;;;104127;1294;545749;-76
2023/08/26 12:39:33;;;;;;;4.90;2.10;;;;;;;;;;104679;1282;545379;-77
2023/08/26 12:43:11;;;;;;;5.30;2.40;;;;;;;;;;103704;1292;545437;-77
2023/08/26 12:46:48;;;;;;;4.90;2.10;;;;;;;;;;103638;1296;545494;-77
2023/08/26 12:50:25;;;;;;;4.30;2.30;;;;;;;;;;104297;1283;544780;-77
2023/08/26 12:53:59;;;;;;;4.90;1.90;;;;;;;;;;103818;1289;544761;-75
2023/08/26 12:57:42;;;;;;;4.70;2.10;;;;;;;;;;103796;1289;545318;-76
2023/08/26 13:01:18;;;;;;;6.60;2.40;;;;;;;;;;103744;1292;545001;-76
2023/08/26 13:04:56;;;;;;;5.80;2.50;;;;;;;;;;103761;1292;544939;-77
2023/08/26 13:08:33;;;;;;;7.70;4.20;;;;;;;;;;103820;1292;545630;-77
2023/08/26 13:12:11;;;;;;;6.10;2.80;;;;;;;;;;104268;1284;544928;-77
2023/08/26 13:15:48;;;;;;;5.10;2.30;;;;;;;;;;103783;1292;545242;-76
2023/08/26 13:19:26;;;;;;;5.60;2.50;;;;;;;;;;104049;1289;545196;-77
2023/08/26 13:23:04;;;;;;;6.10;2.60;;;;;;;;;;103791;1289;545437;-77
2023/08/26 13:26:41;;;;;;;5.30;2.30;;;;;;;;;;103835;1289;544852;-76
2023/08/26 13:30:18;;;;;;;3.90;1.70;;;;;;;;;;103828;1289;545333;-76
2023/08/26 13:33:56;;;;;;;4.80;2.30;;;;;;;;;;103826;1290;544779;-75
2023/08/26 13:37:34;;;;;;;4.10;1.90;;;;;;;;;;103767;1292;545598;-76
2023/08/26 13:41:11;;;;;;;4.90;2.00;;;;;;;;;;103770;1289;544939;-76
2023/08/26 13:44:48;;;;;;;6.00;2.40;;;;;;;;;;103749;1289;545687;-75
2023/08/26 13:48:26;;;;;;;6.10;2.40;;;;;;;;;;104329;1285;545222;-73
2023/08/26 13:52:03;;;;;;;5.10;2.00;;;;;;;;;;103514;1293;544748;-74
2023/08/26 13:55:41;;;;;;;4.90;2.00;;;;;;;;;;103916;1289;544928;-74
2023/08/26 13:59:18;;;;;;;5.00;2.10;;;;;;;;;;103728;1289;545020;-76
2023/08/26 14:02:51;;;;;;;4.70;2.30;;;;;;;;;;103958;1289;545389;-76
2023/08/26 14:06:34;;;;;;;7.50;3.20;;;;;;;;;;103763;1298;544973;-73
2023/08/26 14:10:11;;;;;;;7.00;3.00;;;;;;;;;;103763;1289;544959;-74
2023/08/26 14:13:49;;;;;;;7.00;3.20;;;;;;;;;;103682;1292;544837;-73
2023/08/26 14:17:26;;;;;;;5.60;2.40;;;;;;;;;;103913;1301;545339;-75
2023/08/26 14:21:04;;;;;;;3.90;2.20;;;;;;;;;;103723;1290;544854;-74
2023/08/26 14:24:43;;;;;;;3.80;2.00;;;;;;;;;;103854;1288;544925;-76
2023/08/26 14:28:33;;;;;;;6.20;2.40;;;;;;;;;;104811;1285;547803;-75
2023/08/26 14:31:52;;;;;;;5.20;2.30;;;;;;;;;;103899;1290;544859;-73
2023/08/26 14:46:12;;;;;;;4.20;2.30;;;;;;;;;;104682;1283;550339;-74
2023/08/26 14:49:04;;;;;;;5.80;2.90;;;;;;;;;;103736;1290;545970;-74
2023/08/26 14:52:42;;;;;;;6.20;2.20;;;;;;;;;;103897;1292;545170;-75
2023/08/26 15:06:41;;;;;;;5.30;2.80;;;;;;;;;;104707;1285;550106;-75
2023/08/26 15:09:34;;;;;;;6.80;4.00;;;;;;;;;;103501;1295;545516;-73
2023/08/26 15:13:11;;;;;;;7.10;3.70;;;;;;;;;;103934;1292;545111;-76
2023/08/26 15:16:49;;;;;;;6.00;3.30;;;;;;;;;;103860;1289;545037;-76
2023/08/26 15:20:31;;;;;;;5.50;3.10;;;;;;;;;;103815;1292;547938;-76
2023/08/26 15:24:03;;;;;;;6.90;3.80;;;;;;;;;;103998;1289;545301;-75
2023/08/26 15:27:40;;;;;;;6.30;2.80;;;;;;;;;;104116;1289;544896;-75
2023/08/26 15:31:18;;;;;;;8.30;4.60;;;;;;;;;;103501;1294;544866;-77
2023/08/26 15:34:56;;;;;;;6.70;3.60;;;;;;;;;;103782;1289;544838;-74
2023/08/26 15:38:33;;;;;;;7.00;4.10;;;;;;;;;;104087;1286;544807;-77
2023/08/26 15:42:12;;;;;;;12.00;5.60;;;;;;;;;;103563;1293;545516;-76
2023/08/26 15:45:49;;;;;;;9.70;5.00;;;;;;;;;;104482;1281;545053;-75
2023/08/26 15:49:31;;;;;;;6.70;3.50;;;;;;;;;;103701;1292;548057;-79
2023/08/26 15:53:03;;;;;;;6.90;3.70;;;;;;;;;;103671;1295;545156;-75
2023/08/26 15:56:41;;;;;;;7.00;4.30;;;;;;;;;;103858;1292;545017;-76
